Robert E. Mcallister — WDC8669 — position and weather

sailwx.info

Track history (hours):
 
Tides and Currents Weather Stations Pressure Air Temp Water Temp Dewpoint Dewpoint Depression Visibility Wind Speed Wind Dir Waves Ship Positions

Robert E. Mcallister

Owner: McAllister Towing & Transportation, Staten Island, NY. More information available from US FCC via Universal Licensing System and Coast Guard Vessel Documentation Center.

Last reported at 2015-Apr-01 23:34 UTC. Time now 2015-Apr-02 00:14 UTC.
Position N 40°38' W 074°10'.

Length 34 m; draft 4.3 m.

Type: Tug. MMSI: 367091120.

Date/timePositionNaut miles runAvg speedWind from/ knotsBaromVisibWave heightAir tempDewpointWater temp
2015-Apr-01 23:34N 40°38' W 074°10'0 0.0
2015-Apr-01 22:34N 40°38' W 074°10'0 0.0
2015-Apr-01 21:33N 40°38' W 074°10'0 0.0
2015-Apr-01 20:34N 40°38' W 074°10'0 0.0
2015-Apr-01 19:34N 40°38' W 074°10'5 4.6
2015-Apr-01 18:34N 40°40' W 074°04'0 0.0
2015-Apr-01 17:33N 40°40' W 074°04'1 0.7
2015-Apr-01 16:34N 40°40' W 074°05'2 1.8
2015-Apr-01 15:33N 40°39' W 074°04'2 1.4
2015-Apr-01 14:24N 40°39' W 074°06'3 3.4
2015-Apr-01 13:33N 40°38' W 074°10'0 0.0
2015-Apr-01 12:33N 40°38' W 074°10'2 1.8
2015-Apr-01 11:33N 40°38' W 074°12'2 2.2
2015-Apr-01 10:33N 40°39' W 074°09'4 4.3
2015-Apr-01 09:33N 40°38' W 074°04'5 4.6
2015-Apr-01 08:33N 40°38' W 074°10'0 0.0
2015-Apr-01 07:34N 40°38' W 074°10'0 0.0
2015-Apr-01 06:34N 40°38' W 074°10'0 0.0
2015-Apr-01 05:34N 40°38' W 074°10'0 0.0
2015-Apr-01 04:34N 40°38' W 074°10'0 0.0
2015-Apr-01 03:34N 40°38' W 074°10'0 0.0
2015-Apr-01 02:33N 40°38' W 074°10'0 0.0
2015-Apr-01 01:33N 40°38' W 074°10'0 0.0
2015-Apr-01 00:33N 40°38' W 074°10'0 0.0
2015-Mar-31 23:33N 40°38' W 074°10'0 0.0
2015-Mar-31 22:33N 40°38' W 074°10'0 0.0
2015-Mar-31 21:33N 40°38' W 074°10'0 0.4
2015-Mar-31 20:34N 40°38' W 074°09'0 0.4
2015-Mar-31 19:33N 40°38' W 074°10'0 0.0
2015-Mar-31 18:33N 40°38' W 074°10'0 0.0
2015-Mar-31 17:34N 40°38' W 074°10'0 0.0
2015-Mar-31 16:33N 40°38' W 074°10'0 0.0
2015-Mar-31 15:33N 40°38' W 074°10'0 0.0
2015-Mar-31 14:34N 40°38' W 074°10'0 0.0
2015-Mar-31 13:33N 40°38' W 074°10'0 0.0
2015-Mar-31 12:33N 40°38' W 074°10'0 0.0
2015-Mar-31 11:34N 40°38' W 074°10'0 0.0
2015-Mar-31 10:33N 40°38' W 074°10'0 0.0
2015-Mar-31 09:34N 40°38' W 074°10'0 0.0
2015-Mar-31 08:33N 40°38' W 074°10'0 0.0
2015-Mar-31 07:33N 40°38' W 074°10'0 0.0
2015-Mar-31 06:33N 40°38' W 074°10'0 0.0
2015-Mar-31 05:33N 40°38' W 074°10'0 0.0
2015-Mar-31 04:33N 40°38' W 074°10'0 0.0
2015-Mar-31 03:33N 40°38' W 074°10'0 0.0
2015-Mar-31 02:33N 40°38' W 074°10'0 0.0
2015-Mar-31 01:33N 40°38' W 074°10'0 0.0
2015-Mar-31 00:33N 40°38' W 074°10'0 0.0
2015-Mar-30 23:33N 40°38' W 074°10'0 0.0
2015-Mar-30 22:34N 40°38' W 074°10'0 0.0
2015-Mar-30 21:33N 40°38' W 074°10'0 0.0
2015-Mar-30 20:33N 40°38' W 074°10'0 0.0
2015-Mar-30 19:33N 40°38' W 074°10'2 2.1
2015-Mar-30 18:33N 40°40' W 074°08'2 2.1
2015-Mar-30 17:33N 40°38' W 074°10'0 0.0
2015-Mar-30 16:34N 40°38' W 074°10'0 0.0
2015-Mar-30 15:33N 40°38' W 074°10'0 0.0
2015-Mar-30 14:33N 40°38' W 074°10'0 0.0
2015-Mar-30 13:33N 40°38' W 074°10'0 0.0
2015-Mar-30 12:33N 40°38' W 074°10'0 0.0
2015-Mar-30 11:33N 40°38' W 074°10'0 0.0
2015-Mar-30 10:34N 40°38' W 074°10'0 0.0
2015-Mar-30 09:33N 40°38' W 074°10'0 0.0
2015-Mar-30 08:33N 40°38' W 074°10'0 0.0
2015-Mar-30 07:33N 40°38' W 074°10'0 0.0
2015-Mar-30 06:33N 40°38' W 074°10'0 0.0
2015-Mar-30 05:33N 40°38' W 074°10'0 0.0
2015-Mar-30 04:33N 40°38' W 074°10'0 0.0
2015-Mar-30 03:34N 40°38' W 074°10'0 0.0
2015-Mar-30 02:34N 40°38' W 074°10'1 0.9
2015-Mar-30 01:34N 40°39' W 074°09'2 0.8
2015-Mar-29 23:25N 40°39' W 074°07'2 2.8
2015-Mar-29 22:33N 40°38' W 074°10'0 0.1
2015-Mar-29 21:34N 40°38' W 074°10'0 0.0
2015-Mar-29 20:34N 40°38' W 074°10'0 0.0
2015-Mar-29 19:34N 40°38' W 074°10'0 0.0
2015-Mar-29 18:34N 40°38' W 074°10'0 0.0
2015-Mar-29 17:34N 40°38' W 074°10'0 0.0
2015-Mar-29 16:34N 40°38' W 074°10'0 0.0
2015-Mar-29 15:33N 40°38' W 074°10'0 0.0
2015-Mar-29 14:33N 40°38' W 074°10'0 0.0
2015-Mar-29 13:33N 40°38' W 074°10'0 0.0
2015-Mar-29 12:34N 40°38' W 074°10'0 0.0
2015-Mar-29 11:33N 40°38' W 074°10'0 0.0
2015-Mar-29 10:34N 40°38' W 074°10'0 0.0
2015-Mar-29 09:34N 40°38' W 074°10'0 0.0
2015-Mar-29 08:34N 40°38' W 074°10'0 0.0
2015-Mar-29 07:33N 40°38' W 074°10'0 0.0
2015-Mar-29 06:34N 40°38' W 074°10'0 0.0
2015-Mar-29 05:34N 40°38' W 074°10'0 0.0
2015-Mar-29 04:33N 40°38' W 074°10'0 0.0
2015-Mar-29 03:33N 40°38' W 074°10'0 0.0
2015-Mar-29 02:34N 40°38' W 074°10'0 0.0
2015-Mar-29 01:34N 40°38' W 074°10'0 0.0
2015-Mar-29 00:33N 40°38' W 074°10'0 0.0
2015-Mar-28 23:34N 40°38' W 074°10'0 0.0
2015-Mar-28 22:34N 40°38' W 074°10'0 0.0
2015-Mar-28 21:33N 40°38' W 074°10'0 0.0
2015-Mar-28 20:34N 40°38' W 074°10'0 0.0
2015-Mar-28 19:33N 40°38' W 074°10'0 0.0
2015-Mar-28 18:34N 40°38' W 074°10'0 0.0
2015-Mar-28 17:33N 40°38' W 074°10'0 0.0
2015-Mar-28 16:34N 40°38' W 074°10'0 0.0
2015-Mar-28 15:33N 40°38' W 074°10'0 0.0
2015-Mar-28 14:34N 40°38' W 074°10'0 0.0
2015-Mar-28 13:34N 40°38' W 074°10'0 0.0
2015-Mar-28 12:34N 40°38' W 074°10'0 0.0
2015-Mar-28 11:34N 40°38' W 074°10'0 0.0
2015-Mar-28 10:34N 40°38' W 074°10'0 0.0
2015-Mar-28 09:33N 40°38' W 074°10'0 0.0
2015-Mar-28 08:33N 40°38' W 074°10'0 0.0
2015-Mar-28 07:33N 40°38' W 074°10'0 0.0
2015-Mar-28 06:34N 40°38' W 074°10'0 0.0
2015-Mar-28 05:33N 40°38' W 074°10'0 0.0
2015-Mar-28 04:33N 40°38' W 074°10'0 0.0
2015-Mar-28 03:33N 40°38' W 074°10'0 0.0
2015-Mar-28 02:34N 40°38' W 074°10'0 0.0
2015-Mar-28 01:33N 40°38' W 074°10'0 0.0
2015-Mar-28 00:33N 40°38' W 074°10'0 0.0
2015-Mar-27 23:33N 40°38' W 074°10'0 0.0
2015-Mar-27 22:33N 40°38' W 074°10'0 0.0
2015-Mar-27 21:34N 40°38' W 074°10'0 0.0
2015-Mar-27 20:34N 40°38' W 074°10'0 0.0
2015-Mar-27 19:33N 40°38' W 074°10'0 0.0
2015-Mar-27 18:34N 40°38' W 074°10'0 0.0
2015-Mar-27 17:34N 40°38' W 074°10'0 0.0
2015-Mar-27 16:34N 40°38' W 074°10'0 0.0
2015-Mar-27 15:33N 40°38' W 074°10'0 0.0
2015-Mar-27 13:21N 40°38' W 074°10'0 0.0
2015-Mar-27 11:26N 40°38' W 074°10'0 0.0
2015-Mar-27 10:30N 40°38' W 074°10'0 0.0
2015-Mar-27 09:33N 40°38' W 074°10'0 0.0
2015-Mar-27 08:29N 40°38' W 074°10'0 0.0
2015-Mar-27 07:33N 40°38' W 074°10'0 0.0
2015-Mar-27 06:13N 40°38' W 074°10'0 0.0
2015-Mar-27 05:12N 40°38' W 074°10'0 0.0
2015-Mar-27 03:04N 40°38' W 074°10'0 0.0
2015-Mar-27 02:28N 40°38' W 074°10'0 0.0
2015-Mar-27 00:25N 40°38' W 074°10'0 0.0
2015-Mar-26 23:04N 40°38' W 074°10'0 0.0
2015-Mar-26 22:24N 40°38' W 074°10'0 0.0
2015-Mar-26 21:28N 40°38' W 074°10'0 0.0
2015-Mar-26 20:32N 40°38' W 074°10'0 0.0
2015-Mar-26 19:03N 40°38' W 074°10'0 0.0
2015-Mar-26 18:20N 40°38' W 074°10'0 0.0
2015-Mar-26 17:18N 40°38' W 074°10'0 0.0
2015-Mar-26 16:33N 40°38' W 074°10'0 0.0
2015-Mar-26 15:13N 40°38' W 074°10'0 0.0
2015-Mar-26 14:24N 40°38' W 074°10'0 0.0
2015-Mar-26 13:33N 40°38' W 074°10'0 0.0
2015-Mar-26 11:31N 40°38' W 074°10'0 0.0
2015-Mar-26 10:29N 40°38' W 074°10'0 0.0
2015-Mar-26 05:31N 40°38' W 074°10'0 0.0
2015-Mar-26 03:14N 40°38' W 074°10'0 0.0
2015-Mar-26 02:33N 40°38' W 074°10'0 0.0
2015-Mar-26 01:32N 40°38' W 074°10'0 0.0
2015-Mar-26 00:30N 40°38' W 074°10'0 0.0
2015-Mar-25 23:29N 40°38' W 074°10'0 0.0
2015-Mar-25 22:34N 40°38' W 074°10'0 0.0
2015-Mar-25 21:34N 40°38' W 074°10'0 0.0
2015-Mar-25 20:33N 40°38' W 074°10'0 0.0
2015-Mar-25 19:33N 40°38' W 074°10'0 0.0
2015-Mar-25 18:33N 40°38' W 074°10'0 0.0
2015-Mar-25 17:33N 40°38' W 074°10'0 0.0
2015-Mar-25 16:33N 40°38' W 074°10'0 0.0
2015-Mar-25 15:33N 40°38' W 074°10'0 0.0
2015-Mar-25 14:31N 40°38' W 074°10'0 0.0
2015-Mar-25 10:31N 40°38' W 074°10'0 0.0
2015-Mar-25 09:29N 40°38' W 074°10'0 0.0
2015-Mar-25 08:25N 40°38' W 074°10'0 0.0
2015-Mar-25 07:11N 40°38' W 074°10'0 0.0
2015-Mar-25 06:24N 40°38' W 074°10'0 0.0
2015-Mar-25 05:33N 40°38' W 074°10'0 0.0
2015-Mar-25 04:33N 40°38' W 074°10'0 0.0
2015-Mar-25 03:33N 40°38' W 074°10'0 0.0
2015-Mar-25 02:33N 40°38' W 074°10'0 0.0
2015-Mar-24 22:24N 40°38' W 074°10'0 0.0
2015-Mar-24 19:33N 40°38' W 074°10'0 0.0
2015-Mar-24 18:32N 40°38' W 074°10'0 0.0
2015-Mar-24 17:05N 40°38' W 074°10'0 0.0
2015-Mar-24 16:33N 40°38' W 074°10'0 0.0
2015-Mar-24 15:22N 40°38' W 074°10'0 0.0
2015-Mar-24 14:31N 40°38' W 074°10'0 0.0
2015-Mar-24 13:23N 40°38' W 074°10'0 0.0
2015-Mar-24 12:25N 40°38' W 074°10'0 0.0
2015-Mar-24 11:33N 40°38' W 074°10'0 0.0
2015-Mar-24 10:18N 40°38' W 074°10'0 0.0
2015-Mar-24 09:21N 40°38' W 074°10'0 0.0
2015-Mar-24 08:20N 40°38' W 074°10'0 0.0
2015-Mar-24 07:33N 40°38' W 074°10'0 0.0
2015-Mar-24 06:33N 40°38' W 074°10'0 0.0
2015-Mar-24 05:33N 40°38' W 074°10'0 0.0
2015-Mar-24 04:33N 40°38' W 074°10'0 0.0
2015-Mar-24 03:32N 40°38' W 074°10'0 0.0
2015-Mar-24 02:30N 40°38' W 074°10'0 0.0
2015-Mar-24 01:33N 40°38' W 074°10'0 0.0
2015-Mar-24 00:33N 40°38' W 074°10'0 0.0
2015-Mar-23 23:31N 40°38' W 074°10'0 0.0
2015-Mar-23 22:32N 40°38' W 074°10'0 0.0
2015-Mar-23 21:06N 40°38' W 074°10'0 0.0
2015-Mar-23 20:33N 40°38' W 074°10'0 0.0
2015-Mar-23 19:32N 40°38' W 074°10'0 0.0
2015-Mar-23 18:25N 40°38' W 074°10'0 0.0
2015-Mar-23 17:24N 40°38' W 074°10'0 0.0
2015-Mar-23 16:33N 40°38' W 074°10'0 0.0
2015-Mar-23 15:33N 40°38' W 074°10'0 0.0
2015-Mar-23 14:33N 40°38' W 074°10'0 0.0
2015-Mar-23 13:33N 40°38' W 074°10'0 0.0
2015-Mar-23 12:33N 40°38' W 074°10'0 0.0
2015-Mar-23 11:32N 40°38' W 074°10'0 0.0
2015-Mar-23 10:31N 40°38' W 074°10'2 2.2
2015-Mar-23 09:33N 40°40' W 074°08'1 0.8
2015-Mar-23 08:33N 40°41' W 074°09'0 0.1
2015-Mar-23 07:33N 40°41' W 074°09'0 0.0
2015-Mar-23 06:21N 40°41' W 074°09'4 2.0
2015-Mar-23 04:20N 40°38' W 074°12'0 0.2
2015-Mar-23 03:17N 40°38' W 074°12'5 4.5
2015-Mar-23 02:17N 40°39' W 074°06'2 3.2
2015-Mar-23 01:33N 40°38' W 074°03'  
Track history (hours):
 
Tides and Currents Weather Stations Pressure Air Temp Water Temp Dewpoint Dewpoint Depression Visibility Wind Speed Wind Dir Waves Ship Positions

Robert E. Mcallister

Owner: McAllister Towing & Transportation, Staten Island, NY. More information available from US FCC via Universal Licensing System and Coast Guard Vessel Documentation Center.

Last reported at 2015-Apr-01 23:34 UTC. Time now 2015-Apr-02 00:14 UTC.
Position N 40°38' W 074°10'.

Length 34 m; draft 4.3 m.

Type: Tug. MMSI: 367091120.

Date/timePositionNaut miles runAvg speedWind from/ knotsBaromVisibWave heightAir tempDewpointWater temp
2015-Apr-01 23:34N 40°38' W 074°10'0 0.0
2015-Apr-01 22:34N 40°38' W 074°10'0 0.0
2015-Apr-01 21:33N 40°38' W 074°10'0 0.0
2015-Apr-01 20:34N 40°38' W 074°10'0 0.0
2015-Apr-01 19:34N 40°38' W 074°10'5 4.6
2015-Apr-01 18:34N 40°40' W 074°04'0 0.0
2015-Apr-01 17:33N 40°40' W 074°04'1 0.7
2015-Apr-01 16:34N 40°40' W 074°05'2 1.8
2015-Apr-01 15:33N 40°39' W 074°04'2 1.4
2015-Apr-01 14:24N 40°39' W 074°06'3 3.4
2015-Apr-01 13:33N 40°38' W 074°10'0 0.0
2015-Apr-01 12:33N 40°38' W 074°10'2 1.8
2015-Apr-01 11:33N 40°38' W 074°12'2 2.2
2015-Apr-01 10:33N 40°39' W 074°09'4 4.3
2015-Apr-01 09:33N 40°38' W 074°04'5 4.6
2015-Apr-01 08:33N 40°38' W 074°10'0 0.0
2015-Apr-01 07:34N 40°38' W 074°10'0 0.0
2015-Apr-01 06:34N 40°38' W 074°10'0 0.0
2015-Apr-01 05:34N 40°38' W 074°10'0 0.0
2015-Apr-01 04:34N 40°38' W 074°10'0 0.0
2015-Apr-01 03:34N 40°38' W 074°10'0 0.0
2015-Apr-01 02:33N 40°38' W 074°10'0 0.0
2015-Apr-01 01:33N 40°38' W 074°10'0 0.0
2015-Apr-01 00:33N 40°38' W 074°10'0 0.0
2015-Mar-31 23:33N 40°38' W 074°10'0 0.0
2015-Mar-31 22:33N 40°38' W 074°10'0 0.0
2015-Mar-31 21:33N 40°38' W 074°10'0 0.4
2015-Mar-31 20:34N 40°38' W 074°09'0 0.4
2015-Mar-31 19:33N 40°38' W 074°10'0 0.0
2015-Mar-31 18:33N 40°38' W 074°10'0 0.0
2015-Mar-31 17:34N 40°38' W 074°10'0 0.0
2015-Mar-31 16:33N 40°38' W 074°10'0 0.0
2015-Mar-31 15:33N 40°38' W 074°10'0 0.0
2015-Mar-31 14:34N 40°38' W 074°10'0 0.0
2015-Mar-31 13:33N 40°38' W 074°10'0 0.0
2015-Mar-31 12:33N 40°38' W 074°10'0 0.0
2015-Mar-31 11:34N 40°38' W 074°10'0 0.0
2015-Mar-31 10:33N 40°38' W 074°10'0 0.0
2015-Mar-31 09:34N 40°38' W 074°10'0 0.0
2015-Mar-31 08:33N 40°38' W 074°10'0 0.0
2015-Mar-31 07:33N 40°38' W 074°10'0 0.0
2015-Mar-31 06:33N 40°38' W 074°10'0 0.0
2015-Mar-31 05:33N 40°38' W 074°10'0 0.0
2015-Mar-31 04:33N 40°38' W 074°10'0 0.0
2015-Mar-31 03:33N 40°38' W 074°10'0 0.0
2015-Mar-31 02:33N 40°38' W 074°10'0 0.0
2015-Mar-31 01:33N 40°38' W 074°10'0 0.0
2015-Mar-31 00:33N 40°38' W 074°10'0 0.0
2015-Mar-30 23:33N 40°38' W 074°10'0 0.0
2015-Mar-30 22:34N 40°38' W 074°10'0 0.0
2015-Mar-30 21:33N 40°38' W 074°10'0 0.0
2015-Mar-30 20:33N 40°38' W 074°10'0 0.0
2015-Mar-30 19:33N 40°38' W 074°10'2 2.1
2015-Mar-30 18:33N 40°40' W 074°08'2 2.1
2015-Mar-30 17:33N 40°38' W 074°10'0 0.0
2015-Mar-30 16:34N 40°38' W 074°10'0 0.0
2015-Mar-30 15:33N 40°38' W 074°10'0 0.0
2015-Mar-30 14:33N 40°38' W 074°10'0 0.0
2015-Mar-30 13:33N 40°38' W 074°10'0 0.0
2015-Mar-30 12:33N 40°38' W 074°10'0 0.0
2015-Mar-30 11:33N 40°38' W 074°10'0 0.0
2015-Mar-30 10:34N 40°38' W 074°10'0 0.0
2015-Mar-30 09:33N 40°38' W 074°10'0 0.0
2015-Mar-30 08:33N 40°38' W 074°10'0 0.0
2015-Mar-30 07:33N 40°38' W 074°10'0 0.0
2015-Mar-30 06:33N 40°38' W 074°10'0 0.0
2015-Mar-30 05:33N 40°38' W 074°10'0 0.0
2015-Mar-30 04:33N 40°38' W 074°10'0 0.0
2015-Mar-30 03:34N 40°38' W 074°10'0 0.0
2015-Mar-30 02:34N 40°38' W 074°10'1 0.9
2015-Mar-30 01:34N 40°39' W 074°09'2 0.8
2015-Mar-29 23:25N 40°39' W 074°07'2 2.8
2015-Mar-29 22:33N 40°38' W 074°10'0 0.1
2015-Mar-29 21:34N 40°38' W 074°10'0 0.0
2015-Mar-29 20:34N 40°38' W 074°10'0 0.0
2015-Mar-29 19:34N 40°38' W 074°10'0 0.0
2015-Mar-29 18:34N 40°38' W 074°10'0 0.0
2015-Mar-29 17:34N 40°38' W 074°10'0 0.0
2015-Mar-29 16:34N 40°38' W 074°10'0 0.0
2015-Mar-29 15:33N 40°38' W 074°10'0 0.0
2015-Mar-29 14:33N 40°38' W 074°10'0 0.0
2015-Mar-29 13:33N 40°38' W 074°10'0 0.0
2015-Mar-29 12:34N 40°38' W 074°10'0 0.0
2015-Mar-29 11:33N 40°38' W 074°10'0 0.0
2015-Mar-29 10:34N 40°38' W 074°10'0 0.0
2015-Mar-29 09:34N 40°38' W 074°10'0 0.0
2015-Mar-29 08:34N 40°38' W 074°10'0 0.0
2015-Mar-29 07:33N 40°38' W 074°10'0 0.0
2015-Mar-29 06:34N 40°38' W 074°10'0 0.0
2015-Mar-29 05:34N 40°38' W 074°10'0 0.0
2015-Mar-29 04:33N 40°38' W 074°10'0 0.0
2015-Mar-29 03:33N 40°38' W 074°10'0 0.0
2015-Mar-29 02:34N 40°38' W 074°10'0 0.0
2015-Mar-29 01:34N 40°38' W 074°10'0 0.0
2015-Mar-29 00:33N 40°38' W 074°10'0 0.0
2015-Mar-28 23:34N 40°38' W 074°10'0 0.0
2015-Mar-28 22:34N 40°38' W 074°10'0 0.0
2015-Mar-28 21:33N 40°38' W 074°10'0 0.0
2015-Mar-28 20:34N 40°38' W 074°10'0 0.0
2015-Mar-28 19:33N 40°38' W 074°10'0 0.0
2015-Mar-28 18:34N 40°38' W 074°10'0 0.0
2015-Mar-28 17:33N 40°38' W 074°10'0 0.0
2015-Mar-28 16:34N 40°38' W 074°10'0 0.0
2015-Mar-28 15:33N 40°38' W 074°10'0 0.0
2015-Mar-28 14:34N 40°38' W 074°10'0 0.0
2015-Mar-28 13:34N 40°38' W 074°10'0 0.0
2015-Mar-28 12:34N 40°38' W 074°10'0 0.0
2015-Mar-28 11:34N 40°38' W 074°10'0 0.0
2015-Mar-28 10:34N 40°38' W 074°10'0 0.0
2015-Mar-28 09:33N 40°38' W 074°10'0 0.0
2015-Mar-28 08:33N 40°38' W 074°10'0 0.0
2015-Mar-28 07:33N 40°38' W 074°10'0 0.0
2015-Mar-28 06:34N 40°38' W 074°10'0 0.0
2015-Mar-28 05:33N 40°38' W 074°10'0 0.0
2015-Mar-28 04:33N 40°38' W 074°10'0 0.0
2015-Mar-28 03:33N 40°38' W 074°10'0 0.0
2015-Mar-28 02:34N 40°38' W 074°10'0 0.0
2015-Mar-28 01:33N 40°38' W 074°10'0 0.0
2015-Mar-28 00:33N 40°38' W 074°10'0 0.0
2015-Mar-27 23:33N 40°38' W 074°10'0 0.0
2015-Mar-27 22:33N 40°38' W 074°10'0 0.0
2015-Mar-27 21:34N 40°38' W 074°10'0 0.0
2015-Mar-27 20:34N 40°38' W 074°10'0 0.0
2015-Mar-27 19:33N 40°38' W 074°10'0 0.0
2015-Mar-27 18:34N 40°38' W 074°10'0 0.0
2015-Mar-27 17:34N 40°38' W 074°10'0 0.0
2015-Mar-27 16:34N 40°38' W 074°10'0 0.0
2015-Mar-27 15:33N 40°38' W 074°10'0 0.0
2015-Mar-27 13:21N 40°38' W 074°10'0 0.0
2015-Mar-27 11:26N 40°38' W 074°10'0 0.0
2015-Mar-27 10:30N 40°38' W 074°10'0 0.0
2015-Mar-27 09:33N 40°38' W 074°10'0 0.0
2015-Mar-27 08:29N 40°38' W 074°10'0 0.0
2015-Mar-27 07:33N 40°38' W 074°10'0 0.0
2015-Mar-27 06:13N 40°38' W 074°10'0 0.0
2015-Mar-27 05:12N 40°38' W 074°10'0 0.0
2015-Mar-27 03:04N 40°38' W 074°10'0 0.0
2015-Mar-27 02:28N 40°38' W 074°10'0 0.0
2015-Mar-27 00:25N 40°38' W 074°10'0 0.0
2015-Mar-26 23:04N 40°38' W 074°10'0 0.0
2015-Mar-26 22:24N 40°38' W 074°10'0 0.0
2015-Mar-26 21:28N 40°38' W 074°10'0 0.0
2015-Mar-26 20:32N 40°38' W 074°10'0 0.0
2015-Mar-26 19:03N 40°38' W 074°10'0 0.0
2015-Mar-26 18:20N 40°38' W 074°10'0 0.0
2015-Mar-26 17:18N 40°38' W 074°10'0 0.0
2015-Mar-26 16:33N 40°38' W 074°10'0 0.0
2015-Mar-26 15:13N 40°38' W 074°10'0 0.0
2015-Mar-26 14:24N 40°38' W 074°10'0 0.0
2015-Mar-26 13:33N 40°38' W 074°10'0 0.0
2015-Mar-26 11:31N 40°38' W 074°10'0 0.0
2015-Mar-26 10:29N 40°38' W 074°10'0 0.0
2015-Mar-26 05:31N 40°38' W 074°10'0 0.0
2015-Mar-26 03:14N 40°38' W 074°10'0 0.0
2015-Mar-26 02:33N 40°38' W 074°10'0 0.0
2015-Mar-26 01:32N 40°38' W 074°10'0 0.0
2015-Mar-26 00:30N 40°38' W 074°10'0 0.0
2015-Mar-25 23:29N 40°38' W 074°10'0 0.0
2015-Mar-25 22:34N 40°38' W 074°10'0 0.0
2015-Mar-25 21:34N 40°38' W 074°10'0 0.0
2015-Mar-25 20:33N 40°38' W 074°10'0 0.0
2015-Mar-25 19:33N 40°38' W 074°10'0 0.0
2015-Mar-25 18:33N 40°38' W 074°10'0 0.0
2015-Mar-25 17:33N 40°38' W 074°10'0 0.0
2015-Mar-25 16:33N 40°38' W 074°10'0 0.0
2015-Mar-25 15:33N 40°38' W 074°10'0 0.0
2015-Mar-25 14:31N 40°38' W 074°10'0 0.0
2015-Mar-25 10:31N 40°38' W 074°10'0 0.0
2015-Mar-25 09:29N 40°38' W 074°10'0 0.0
2015-Mar-25 08:25N 40°38' W 074°10'0 0.0
2015-Mar-25 07:11N 40°38' W 074°10'0 0.0
2015-Mar-25 06:24N 40°38' W 074°10'0 0.0
2015-Mar-25 05:33N 40°38' W 074°10'0 0.0
2015-Mar-25 04:33N 40°38' W 074°10'0 0.0
2015-Mar-25 03:33N 40°38' W 074°10'0 0.0
2015-Mar-25 02:33N 40°38' W 074°10'0 0.0
2015-Mar-24 22:24N 40°38' W 074°10'0 0.0
2015-Mar-24 19:33N 40°38' W 074°10'0 0.0
2015-Mar-24 18:32N 40°38' W 074°10'0 0.0
2015-Mar-24 17:05N 40°38' W 074°10'0 0.0
2015-Mar-24 16:33N 40°38' W 074°10'0 0.0
2015-Mar-24 15:22N 40°38' W 074°10'0 0.0
2015-Mar-24 14:31N 40°38' W 074°10'0 0.0
2015-Mar-24 13:23N 40°38' W 074°10'0 0.0
2015-Mar-24 12:25N 40°38' W 074°10'0 0.0
2015-Mar-24 11:33N 40°38' W 074°10'0 0.0
2015-Mar-24 10:18N 40°38' W 074°10'0 0.0
2015-Mar-24 09:21N 40°38' W 074°10'0 0.0
2015-Mar-24 08:20N 40°38' W 074°10'0 0.0
2015-Mar-24 07:33N 40°38' W 074°10'0 0.0
2015-Mar-24 06:33N 40°38' W 074°10'0 0.0
2015-Mar-24 05:33N 40°38' W 074°10'0 0.0
2015-Mar-24 04:33N 40°38' W 074°10'0 0.0
2015-Mar-24 03:32N 40°38' W 074°10'0 0.0
2015-Mar-24 02:30N 40°38' W 074°10'0 0.0
2015-Mar-24 01:33N 40°38' W 074°10'0 0.0
2015-Mar-24 00:33N 40°38' W 074°10'0 0.0
2015-Mar-23 23:31N 40°38' W 074°10'0 0.0
2015-Mar-23 22:32N 40°38' W 074°10'0 0.0
2015-Mar-23 21:06N 40°38' W 074°10'0 0.0
2015-Mar-23 20:33N 40°38' W 074°10'0 0.0
2015-Mar-23 19:32N 40°38' W 074°10'0 0.0
2015-Mar-23 18:25N 40°38' W 074°10'0 0.0
2015-Mar-23 17:24N 40°38' W 074°10'0 0.0
2015-Mar-23 16:33N 40°38' W 074°10'0 0.0
2015-Mar-23 15:33N 40°38' W 074°10'0 0.0
2015-Mar-23 14:33N 40°38' W 074°10'0 0.0
2015-Mar-23 13:33N 40°38' W 074°10'0 0.0
2015-Mar-23 12:33N 40°38' W 074°10'0 0.0
2015-Mar-23 11:32N 40°38' W 074°10'0 0.0
2015-Mar-23 10:31N 40°38' W 074°10'2 2.2
2015-Mar-23 09:33N 40°40' W 074°08'1 0.8
2015-Mar-23 08:33N 40°41' W 074°09'0 0.1
2015-Mar-23 07:33N 40°41' W 074°09'0 0.0
2015-Mar-23 06:21N 40°41' W 074°09'4 2.0
2015-Mar-23 04:20N 40°38' W 074°12'0 0.2
2015-Mar-23 03:17N 40°38' W 074°12'5 4.5
2015-Mar-23 02:17N 40°39' W 074°06'2 3.2
2015-Mar-23 01:33N 40°38' W 074°03'  

Dump ship's entire track history